sensor_id;sensor_type;location;lat;lon;timestamp;P1;durP1;ratioP1;P2;durP2;ratioP2
10987;SDS011;5547;42.672;23.230;2022-08-01T00:02:12;4.97;;;3.90;;
10987;SDS011;5547;42.672;23.230;2022-08-01T00:04:37;4.73;;;4.30;;
10987;SDS011;5547;42.672;23.230;2022-08-01T00:07:03;4.10;;;3.80;;
10987;SDS011;5547;42.672;23.230;2022-08-01T00:09:28;4.67;;;3.40;;
10987;SDS011;5547;42.672;23.230;2022-08-01T00:11:54;4.20;;;3.80;;
10987;SDS011;5547;42.672;23.230;2022-08-01T00:14:20;4.07;;;3.67;;
10987;SDS011;5547;42.672;23.230;2022-08-01T00:16:45;3.60;;;3.40;;
10987;SDS011;5547;42.672;23.230;2022-08-01T00:19:11;3.47;;;3.20;;
10987;SDS011;5547;42.672;23.230;2022-08-01T00:21:36;3.63;;;3.33;;
10987;SDS011;5547;42.672;23.230;2022-08-01T00:24:01;3.93;;;3.47;;
10987;SDS011;5547;42.672;23.230;2022-08-01T00:26:27;3.43;;;3.10;;
10987;SDS011;5547;42.672;23.230;2022-08-01T00:28:52;3.77;;;3.57;;
10987;SDS011;5547;42.672;23.230;2022-08-01T00:31:18;6.73;;;3.50;;
10987;SDS011;5547;42.672;23.230;2022-08-01T00:33:43;3.67;;;3.37;;
10987;SDS011;5547;42.672;23.230;2022-08-01T00:36:09;4.00;;;3.70;;
10987;SDS011;5547;42.672;23.230;2022-08-01T00:38:34;4.17;;;3.87;;
10987;SDS011;5547;42.672;23.230;2022-08-01T00:41:00;3.50;;;3.20;;
10987;SDS011;5547;42.672;23.230;2022-08-01T00:43:25;3.33;;;3.03;;
10987;SDS011;5547;42.672;23.230;2022-08-01T00:45:50;3.53;;;3.23;;
10987;SDS011;5547;42.672;23.230;2022-08-01T00:48:16;3.87;;;3.37;;
10987;SDS011;5547;42.672;23.230;2022-08-01T00:50:41;3.40;;;3.10;;
10987;SDS011;5547;42.672;23.230;2022-08-01T00:53:07;3.07;;;2.87;;
10987;SDS011;5547;42.672;23.230;2022-08-01T00:55:32;3.63;;;3.23;;
10987;SDS011;5547;42.672;23.230;2022-08-01T00:57:58;3.50;;;3.13;;
10987;SDS011;5547;42.672;23.230;2022-08-01T01:00:24;3.87;;;2.90;;
10987;SDS011;5547;42.672;23.230;2022-08-01T01:02:50;3.17;;;2.87;;
10987;SDS011;5547;42.672;23.230;2022-08-01T01:05:16;3.00;;;2.80;;
10987;SDS011;5547;42.672;23.230;2022-08-01T01:10:17;4.57;;;2.77;;
10987;SDS011;5547;42.672;23.230;2022-08-01T01:18:23;3.50;;;2.53;;
10987;SDS011;5547;42.672;23.230;2022-08-01T01:26:31;3.97;;;2.50;;
10987;SDS011;5547;42.672;23.230;2022-08-01T01:31:31;2.50;;;2.30;;
10987;SDS011;5547;42.672;23.230;2022-08-01T01:34:01;2.87;;;2.20;;
10987;SDS011;5547;42.672;23.230;2022-08-01T01:36:29;2.00;;;1.90;;
10987;SDS011;5547;42.672;23.230;2022-08-01T01:38:57;3.27;;;2.03;;
10987;SDS011;5547;42.672;23.230;2022-08-01T01:41:25;3.27;;;2.10;;
10987;SDS011;5547;42.672;23.230;2022-08-01T01:43:52;2.00;;;1.90;;
10987;SDS011;5547;42.672;23.230;2022-08-01T01:46:20;1.93;;;1.83;;
10987;SDS011;5547;42.672;23.230;2022-08-01T01:48:48;3.53;;;2.00;;
10987;SDS011;5547;42.672;23.230;2022-08-01T01:51:15;2.43;;;1.83;;
10987;SDS011;5547;42.672;23.230;2022-08-01T01:53:41;1.80;;;1.70;;
10987;SDS011;5547;42.672;23.230;2022-08-01T01:56:09;2.60;;;1.90;;
10987;SDS011;5547;42.672;23.230;2022-08-01T01:58:36;2.27;;;1.90;;
10987;SDS011;5547;42.672;23.230;2022-08-01T02:01:04;2.23;;;2.03;;
10987;SDS011;5547;42.672;23.230;2022-08-01T02:03:31;2.50;;;2.10;;
10987;SDS011;5547;42.672;23.230;2022-08-01T02:06:01;2.30;;;1.80;;
10987;SDS011;5547;42.672;23.230;2022-08-01T02:08:27;2.13;;;1.93;;
10987;SDS011;5547;42.672;23.230;2022-08-01T02:10:55;3.73;;;1.90;;
10987;SDS011;5547;42.672;23.230;2022-08-01T02:13:39;2.10;;;1.90;;
10987;SDS011;5547;42.672;23.230;2022-08-01T02:16:06;2.10;;;2.00;;
10987;SDS011;5547;42.672;23.230;2022-08-01T02:18:36;4.50;;;2.03;;
10987;SDS011;5547;42.672;23.230;2022-08-01T02:21:02;2.03;;;1.90;;
10987;SDS011;5547;42.672;23.230;2022-08-01T02:23:31;3.20;;;2.30;;
10987;SDS011;5547;42.672;23.230;2022-08-01T02:25:59;2.83;;;2.10;;
10987;SDS011;5547;42.672;23.230;2022-08-01T02:28:30;2.30;;;2.10;;
10987;SDS011;5547;42.672;23.230;2022-08-01T02:31:03;2.57;;;2.37;;
10987;SDS011;5547;42.672;23.230;2022-08-01T02:33:36;3.30;;;1.93;;
10987;SDS011;5547;42.672;23.230;2022-08-01T02:36:04;1.90;;;1.73;;
10987;SDS011;5547;42.672;23.230;2022-08-01T02:38:32;2.47;;;2.27;;
10987;SDS011;5547;42.672;23.230;2022-08-01T02:41:02;2.90;;;1.93;;
10987;SDS011;5547;42.672;23.230;2022-08-01T02:43:31;2.23;;;2.00;;
10987;SDS011;5547;42.672;23.230;2022-08-01T02:46:02;2.00;;;1.80;;
10987;SDS011;5547;42.672;23.230;2022-08-01T02:48:31;2.50;;;2.20;;
10987;SDS011;5547;42.672;23.230;2022-08-01T02:51:01;3.73;;;2.03;;
10987;SDS011;5547;42.672;23.230;2022-08-01T02:53:28;4.73;;;2.13;;
10987;SDS011;5547;42.672;23.230;2022-08-01T02:55:57;2.20;;;2.10;;
10987;SDS011;5547;42.672;23.230;2022-08-01T02:58:24;2.53;;;2.30;;
10987;SDS011;5547;42.672;23.230;2022-08-01T03:00:51;3.20;;;2.00;;
10987;SDS011;5547;42.672;23.230;2022-08-01T03:03:17;2.03;;;1.90;;
10987;SDS011;5547;42.672;23.230;2022-08-01T03:05:43;2.33;;;2.23;;
10987;SDS011;5547;42.672;23.230;2022-08-01T03:08:10;2.83;;;2.00;;
10987;SDS011;5547;42.672;23.230;2022-08-01T03:10:39;3.00;;;2.30;;
10987;SDS011;5547;42.672;23.230;2022-08-01T03:13:08;2.13;;;2.00;;
10987;SDS011;5547;42.672;23.230;2022-08-01T03:15:35;2.50;;;2.30;;
10987;SDS011;5547;42.672;23.230;2022-08-01T03:18:05;2.40;;;2.20;;
10987;SDS011;5547;42.672;23.230;2022-08-01T03:20:33;2.97;;;1.90;;
10987;SDS011;5547;42.672;23.230;2022-08-01T03:23:03;2.37;;;2.13;;
10987;SDS011;5547;42.672;23.230;2022-08-01T03:25:34;2.93;;;2.20;;
10987;SDS011;5547;42.672;23.230;2022-08-01T03:28:03;2.33;;;2.07;;
10987;SDS011;5547;42.672;23.230;2022-08-01T03:30:30;3.97;;;2.20;;
10987;SDS011;5547;42.672;23.230;2022-08-01T03:32:58;4.07;;;2.57;;
10987;SDS011;5547;42.672;23.230;2022-08-01T03:35:32;2.70;;;2.10;;
10987;SDS011;5547;42.672;23.230;2022-08-01T03:37:59;2.40;;;2.20;;
10987;SDS011;5547;42.672;23.230;2022-08-01T03:43:22;3.33;;;2.57;;
10987;SDS011;5547;42.672;23.230;2022-08-01T03:45:55;2.60;;;2.40;;
10987;SDS011;5547;42.672;23.230;2022-08-01T03:48:28;3.37;;;2.47;;
10987;SDS011;5547;42.672;23.230;2022-08-01T03:50:56;3.10;;;2.83;;
10987;SDS011;5547;42.672;23.230;2022-08-01T03:53:24;2.93;;;2.70;;
10987;SDS011;5547;42.672;23.230;2022-08-01T03:55:53;3.13;;;2.80;;
10987;SDS011;5547;42.672;23.230;2022-08-01T03:58:20;3.80;;;2.60;;
10987;SDS011;5547;42.672;23.230;2022-08-01T04:00:47;2.80;;;2.50;;
10987;SDS011;5547;42.672;23.230;2022-08-01T04:03:13;2.93;;;2.63;;
10987;SDS011;5547;42.672;23.230;2022-08-01T04:05:42;2.63;;;2.43;;
10987;SDS011;5547;42.672;23.230;2022-08-01T04:08:08;3.10;;;2.80;;
10987;SDS011;5547;42.672;23.230;2022-08-01T04:10:33;3.00;;;2.80;;
10987;SDS011;5547;42.672;23.230;2022-08-01T04:12:59;2.53;;;2.37;;
10987;SDS011;5547;42.672;23.230;2022-08-01T04:15:24;2.70;;;2.50;;
10987;SDS011;5547;42.672;23.230;2022-08-01T04:17:50;2.70;;;2.50;;
10987;SDS011;5547;42.672;23.230;2022-08-01T04:20:15;2.50;;;2.30;;
10987;SDS011;5547;42.672;23.230;2022-08-01T04:22:41;2.63;;;2.43;;
10987;SDS011;5547;42.672;23.230;2022-08-01T04:25:10;3.13;;;2.60;;
10987;SDS011;5547;42.672;23.230;2022-08-01T04:27:42;3.80;;;2.50;;
10987;SDS011;5547;42.672;23.230;2022-08-01T04:30:10;2.80;;;2.60;;
10987;SDS011;5547;42.672;23.230;2022-08-01T04:32:37;2.70;;;2.50;;
10987;SDS011;5547;42.672;23.230;2022-08-01T04:35:05;2.90;;;2.60;;
10987;SDS011;5547;42.672;23.230;2022-08-01T04:37:33;2.97;;;2.30;;
10987;SDS011;5547;42.672;23.230;2022-08-01T04:40:02;3.63;;;2.50;;
10987;SDS011;5547;42.672;23.230;2022-08-01T04:42:30;2.63;;;2.43;;
10987;SDS011;5547;42.672;23.230;2022-08-01T04:44:57;3.13;;;2.33;;
10987;SDS011;5547;42.672;23.230;2022-08-01T04:47:23;4.73;;;2.40;;
10987;SDS011;5547;42.672;23.230;2022-08-01T04:49:50;3.50;;;2.20;;
10987;SDS011;5547;42.672;23.230;2022-08-01T04:52:16;2.97;;;2.53;;
10987;SDS011;5547;42.672;23.230;2022-08-01T04:54:42;2.60;;;2.40;;
10987;SDS011;5547;42.672;23.230;2022-08-01T04:57:08;2.83;;;2.40;;
10987;SDS011;5547;42.672;23.230;2022-08-01T04:59:34;5.20;;;2.50;;
10987;SDS011;5547;42.672;23.230;2022-08-01T05:02:05;3.07;;;2.00;;
10987;SDS011;5547;42.672;23.230;2022-08-01T05:04:32;2.57;;;2.37;;
10987;SDS011;5547;42.672;23.230;2022-08-01T05:06:57;2.90;;;2.57;;
10987;SDS011;5547;42.672;23.230;2022-08-01T05:09:22;2.30;;;2.10;;
10987;SDS011;5547;42.672;23.230;2022-08-01T05:11:48;2.40;;;2.17;;
10987;SDS011;5547;42.672;23.230;2022-08-01T05:14:13;2.30;;;2.20;;
10987;SDS011;5547;42.672;23.230;2022-08-01T05:16:39;3.00;;;2.30;;
10987;SDS011;5547;42.672;23.230;2022-08-01T05:19:04;2.27;;;2.17;;
10987;SDS011;5547;42.672;23.230;2022-08-01T05:21:30;2.40;;;2.20;;
10987;SDS011;5547;42.672;23.230;2022-08-01T05:23:55;2.70;;;2.47;;
10987;SDS011;5547;42.672;23.230;2022-08-01T05:26:21;3.03;;;2.40;;
10987;SDS011;5547;42.672;23.230;2022-08-01T05:28:46;2.37;;;2.17;;
10987;SDS011;5547;42.672;23.230;2022-08-01T05:31:12;2.40;;;2.20;;
10987;SDS011;5547;42.672;23.230;2022-08-01T05:33:37;2.63;;;2.23;;
10987;SDS011;5547;42.672;23.230;2022-08-01T05:36:03;2.27;;;2.17;;
10987;SDS011;5547;42.672;23.230;2022-08-01T05:38:28;2.33;;;2.23;;
10987;SDS011;5547;42.672;23.230;2022-08-01T05:40:54;3.53;;;2.10;;
10987;SDS011;5547;42.672;23.230;2022-08-01T05:43:19;2.67;;;2.30;;
10987;SDS011;5547;42.672;23.230;2022-08-01T05:45:45;4.13;;;2.50;;
10987;SDS011;5547;42.672;23.230;2022-08-01T05:48:11;2.97;;;2.30;;
10987;SDS011;5547;42.672;23.230;2022-08-01T05:50:36;2.73;;;2.30;;
10987;SDS011;5547;42.672;23.230;2022-08-01T05:53:01;2.40;;;2.13;;
10987;SDS011;5547;42.672;23.230;2022-08-01T05:55:27;2.40;;;2.20;;
10987;SDS011;5547;42.672;23.230;2022-08-01T05:57:52;3.63;;;2.27;;
10987;SDS011;5547;42.672;23.230;2022-08-01T06:00:18;2.27;;;2.00;;
10987;SDS011;5547;42.672;23.230;2022-08-01T06:02:43;2.50;;;2.30;;
10987;SDS011;5547;42.672;23.230;2022-08-01T06:05:09;3.20;;;2.17;;
10987;SDS011;5547;42.672;23.230;2022-08-01T06:07:35;2.87;;;2.50;;
10987;SDS011;5547;42.672;23.230;2022-08-01T06:10:00;1.80;;;1.70;;
10987;SDS011;5547;42.672;23.230;2022-08-01T06:12:26;3.17;;;2.07;;
10987;SDS011;5547;42.672;23.230;2022-08-01T06:14:51;2.63;;;2.00;;
10987;SDS011;5547;42.672;23.230;2022-08-01T06:17:17;2.60;;;2.40;;
10987;SDS011;5547;42.672;23.230;2022-08-01T06:19:43;4.73;;;2.40;;
10987;SDS011;5547;42.672;23.230;2022-08-01T06:22:08;3.73;;;2.60;;
10987;SDS011;5547;42.672;23.230;2022-08-01T06:24:34;2.33;;;2.13;;
10987;SDS011;5547;42.672;23.230;2022-08-01T06:26:59;3.20;;;2.23;;
10987;SDS011;5547;42.672;23.230;2022-08-01T06:29:25;3.07;;;2.43;;
10987;SDS011;5547;42.672;23.230;2022-08-01T06:31:50;5.07;;;2.40;;
10987;SDS011;5547;42.672;23.230;2022-08-01T06:34:16;3.20;;;2.27;;
10987;SDS011;5547;42.672;23.230;2022-08-01T06:36:41;2.60;;;2.40;;
10987;SDS011;5547;42.672;23.230;2022-08-01T06:39:07;3.30;;;2.50;;
10987;SDS011;5547;42.672;23.230;2022-08-01T06:41:32;2.23;;;2.03;;
10987;SDS011;5547;42.672;23.230;2022-08-01T06:43:57;3.73;;;2.53;;
10987;SDS011;5547;42.672;23.230;2022-08-01T06:46:24;2.60;;;2.33;;
10987;SDS011;5547;42.672;23.230;2022-08-01T06:48:50;3.60;;;2.30;;
10987;SDS011;5547;42.672;23.230;2022-08-01T06:51:16;2.27;;;2.17;;
10987;SDS011;5547;42.672;23.230;2022-08-01T06:53:44;2.40;;;2.20;;
10987;SDS011;5547;42.672;23.230;2022-08-01T06:56:10;3.30;;;2.33;;
10987;SDS011;5547;42.672;23.230;2022-08-01T06:58:35;3.40;;;2.37;;
10987;SDS011;5547;42.672;23.230;2022-08-01T07:01:01;2.60;;;2.45;;
10987;SDS011;5547;42.672;23.230;2022-08-01T07:03:30;3.20;;;2.90;;
10987;SDS011;5547;42.672;23.230;2022-08-01T07:05:56;2.70;;;2.50;;
10987;SDS011;5547;42.672;23.230;2022-08-01T07:08:22;3.93;;;2.63;;
10987;SDS011;5547;42.672;23.230;2022-08-01T07:10:47;2.53;;;2.33;;
10987;SDS011;5547;42.672;23.230;2022-08-01T07:13:13;3.10;;;2.83;;
10987;SDS011;5547;42.672;23.230;2022-08-01T07:15:41;3.33;;;2.73;;
10987;SDS011;5547;42.672;23.230;2022-08-01T07:18:06;3.37;;;2.60;;
10987;SDS011;5547;42.672;23.230;2022-08-01T07:20:32;2.40;;;2.30;;
10987;SDS011;5547;42.672;23.230;2022-08-01T07:22:57;3.77;;;3.20;;
10987;SDS011;5547;42.672;23.230;2022-08-01T07:25:22;4.60;;;2.87;;
10987;SDS011;5547;42.672;23.230;2022-08-01T07:27:48;2.83;;;2.63;;
10987;SDS011;5547;42.672;23.230;2022-08-01T07:30:14;4.40;;;2.80;;
10987;SDS011;5547;42.672;23.230;2022-08-01T07:32:39;3.00;;;2.70;;
10987;SDS011;5547;42.672;23.230;2022-08-01T07:35:05;3.93;;;2.90;;
10987;SDS011;5547;42.672;23.230;2022-08-01T07:37:31;2.70;;;2.50;;
10987;SDS011;5547;42.672;23.230;2022-08-01T07:39:56;3.00;;;2.70;;
10987;SDS011;5547;42.672;23.230;2022-08-01T07:42:22;2.87;;;2.67;;
10987;SDS011;5547;42.672;23.230;2022-08-01T07:44:47;3.85;;;2.38;;
10987;SDS011;5547;42.672;23.230;2022-08-01T07:47:12;3.67;;;2.63;;
10987;SDS011;5547;42.672;23.230;2022-08-01T07:49:38;2.50;;;2.40;;
10987;SDS011;5547;42.672;23.230;2022-08-01T07:52:04;2.90;;;2.37;;
10987;SDS011;5547;42.672;23.230;2022-08-01T07:54:30;2.30;;;2.20;;
10987;SDS011;5547;42.672;23.230;2022-08-01T07:56:57;2.65;;;2.55;;
10987;SDS011;5547;42.672;23.230;2022-08-01T07:59:22;3.35;;;2.58;;
10987;SDS011;5547;42.672;23.230;2022-08-01T08:01:49;2.67;;;2.50;;
10987;SDS011;5547;42.672;23.230;2022-08-01T08:04:16;2.90;;;2.53;;
10987;SDS011;5547;42.672;23.230;2022-08-01T08:06:42;2.80;;;2.58;;
10987;SDS011;5547;42.672;23.230;2022-08-01T08:09:08;3.28;;;2.33;;
10987;SDS011;5547;42.672;23.230;2022-08-01T08:11:33;2.70;;;2.50;;
10987;SDS011;5547;42.672;23.230;2022-08-01T08:13:59;2.73;;;2.53;;
10987;SDS011;5547;42.672;23.230;2022-08-01T08:16:24;3.30;;;2.10;;
10987;SDS011;5547;42.672;23.230;2022-08-01T08:18:50;4.33;;;2.73;;
10987;SDS011;5547;42.672;23.230;2022-08-01T08:21:15;3.03;;;2.60;;
10987;SDS011;5547;42.672;23.230;2022-08-01T08:23:40;2.90;;;2.70;;
10987;SDS011;5547;42.672;23.230;2022-08-01T08:26:25;3.00;;;2.80;;
10987;SDS011;5547;42.672;23.230;2022-08-01T08:28:50;2.92;;;2.70;;
10987;SDS011;5547;42.672;23.230;2022-08-01T08:31:15;3.63;;;2.92;;
10987;SDS011;5547;42.672;23.230;2022-08-01T08:33:41;3.08;;;2.88;;
10987;SDS011;5547;42.672;23.230;2022-08-01T08:36:06;3.08;;;2.80;;
10987;SDS011;5547;42.672;23.230;2022-08-01T08:38:32;3.10;;;2.80;;
10987;SDS011;5547;42.672;23.230;2022-08-01T08:40:57;2.60;;;2.40;;
10987;SDS011;5547;42.672;23.230;2022-08-01T08:43:24;3.03;;;2.67;;
10987;SDS011;5547;42.672;23.230;2022-08-01T08:45:50;2.85;;;2.65;;
10987;SDS011;5547;42.672;23.230;2022-08-01T08:48:17;3.20;;;2.90;;
10987;SDS011;5547;42.672;23.230;2022-08-01T08:50:43;3.15;;;2.63;;
10987;SDS011;5547;42.672;23.230;2022-08-01T08:53:11;2.37;;;2.27;;
10987;SDS011;5547;42.672;23.230;2022-08-01T08:55:40;2.40;;;2.30;;
10987;SDS011;5547;42.672;23.230;2022-08-01T08:58:09;2.75;;;2.55;;
10987;SDS011;5547;42.672;23.230;2022-08-01T09:00:38;2.85;;;2.65;;
10987;SDS011;5547;42.672;23.230;2022-08-01T09:03:04;2.80;;;2.60;;
10987;SDS011;5547;42.672;23.230;2022-08-01T09:05:30;2.95;;;2.75;;
10987;SDS011;5547;42.672;23.230;2022-08-01T09:07:55;2.40;;;2.30;;
10987;SDS011;5547;42.672;23.230;2022-08-01T09:10:21;3.50;;;2.40;;
10987;SDS011;5547;42.672;23.230;2022-08-01T09:15:47;2.72;;;2.63;;
10987;SDS011;5547;42.672;23.230;2022-08-01T09:26:13;2.38;;;2.20;;
10987;SDS011;5547;42.672;23.230;2022-08-01T09:28:41;2.70;;;2.50;;
10987;SDS011;5547;42.672;23.230;2022-08-01T09:31:09;2.85;;;2.65;;
10987;SDS011;5547;42.672;23.230;2022-08-01T09:33:48;2.72;;;2.58;;
10987;SDS011;5547;42.672;23.230;2022-08-01T09:36:19;3.97;;;2.88;;
10987;SDS011;5547;42.672;23.230;2022-08-01T09:38:49;2.75;;;2.55;;
10987;SDS011;5547;42.672;23.230;2022-08-01T09:41:16;4.82;;;2.53;;
10987;SDS011;5547;42.672;23.230;2022-08-01T09:43:47;2.55;;;2.35;;
10987;SDS011;5547;42.672;23.230;2022-08-01T09:46:15;2.70;;;2.50;;
10987;SDS011;5547;42.672;23.230;2022-08-01T09:53:55;3.28;;;2.97;;
10987;SDS011;5547;42.672;23.230;2022-08-01T09:56:21;3.22;;;2.67;;
10987;SDS011;5547;42.672;23.230;2022-08-01T09:58:57;3.00;;;2.80;;
10987;SDS011;5547;42.672;23.230;2022-08-01T10:01:24;2.95;;;2.72;;
10987;SDS011;5547;42.672;23.230;2022-08-01T10:06:32;3.10;;;2.80;;
10987;SDS011;5547;42.672;23.230;2022-08-01T10:08:57;3.13;;;2.90;;
10987;SDS011;5547;42.672;23.230;2022-08-01T10:11:23;2.80;;;2.60;;
10987;SDS011;5547;42.672;23.230;2022-08-01T10:13:49;4.50;;;2.85;;
10987;SDS011;5547;42.672;23.230;2022-08-01T10:16:14;2.72;;;2.53;;
10987;SDS011;5547;42.672;23.230;2022-08-01T10:18:41;2.78;;;2.45;;
10987;SDS011;5547;42.672;23.230;2022-08-01T10:21:07;2.78;;;2.55;;
10987;SDS011;5547;42.672;23.230;2022-08-01T10:23:35;2.50;;;2.30;;
10987;SDS011;5547;42.672;23.230;2022-08-01T10:26:01;2.63;;;2.42;;
10987;SDS011;5547;42.672;23.230;2022-08-01T10:28:30;2.40;;;2.20;;
10987;SDS011;5547;42.672;23.230;2022-08-01T10:30:57;2.85;;;2.65;;
10987;SDS011;5547;42.672;23.230;2022-08-01T10:33:23;2.85;;;2.60;;
10987;SDS011;5547;42.672;23.230;2022-08-01T10:35:52;2.72;;;2.53;;
10987;SDS011;5547;42.672;23.230;2022-08-01T10:38:18;2.50;;;2.30;;
10987;SDS011;5547;42.672;23.230;2022-08-01T10:40:44;2.03;;;1.92;;
10987;SDS011;5547;42.672;23.230;2022-08-01T10:43:10;2.92;;;2.20;;
10987;SDS011;5547;42.672;23.230;2022-08-01T10:45:37;2.58;;;2.35;;
10987;SDS011;5547;42.672;23.230;2022-08-01T10:50:44;2.53;;;2.33;;
10987;SDS011;5547;42.672;23.230;2022-08-01T10:53:19;3.75;;;2.40;;
10987;SDS011;5547;42.672;23.230;2022-08-01T10:58:38;2.50;;;2.40;;
10987;SDS011;5547;42.672;23.230;2022-08-01T11:09:03;2.58;;;2.38;;
10987;SDS011;5547;42.672;23.230;2022-08-01T11:14:26;2.47;;;2.38;;
10987;SDS011;5547;42.672;23.230;2022-08-01T11:16:52;2.33;;;2.22;;
10987;SDS011;5547;42.672;23.230;2022-08-01T11:19:18;2.70;;;2.50;;
10987;SDS011;5547;42.672;23.230;2022-08-01T11:27:19;2.42;;;2.30;;
10987;SDS011;5547;42.672;23.230;2022-08-01T11:32:45;2.88;;;2.60;;
10987;SDS011;5547;42.672;23.230;2022-08-01T11:35:18;2.63;;;2.42;;
10987;SDS011;5547;42.672;23.230;2022-08-01T11:37:48;2.95;;;2.50;;
10987;SDS011;5547;42.672;23.230;2022-08-01T11:45:51;2.92;;;2.65;;
10987;SDS011;5547;42.672;23.230;2022-08-01T11:48:21;3.65;;;2.70;;
10987;SDS011;5547;42.672;23.230;2022-08-01T11:50:51;2.92;;;2.72;;
10987;SDS011;5547;42.672;23.230;2022-08-01T11:53:18;2.83;;;2.60;;
10987;SDS011;5547;42.672;23.230;2022-08-01T11:55:53;2.78;;;2.58;;
10987;SDS011;5547;42.672;23.230;2022-08-01T11:58:24;4.53;;;2.53;;
10987;SDS011;5547;42.672;23.230;2022-08-01T12:00:51;3.17;;;2.85;;
10987;SDS011;5547;42.672;23.230;2022-08-01T12:03:23;2.75;;;2.53;;
10987;SDS011;5547;42.672;23.230;2022-08-01T12:05:58;3.17;;;2.60;;
10987;SDS011;5547;42.672;23.230;2022-08-01T12:08:24;2.70;;;2.50;;
10987;SDS011;5547;42.672;23.230;2022-08-01T12:10:51;3.10;;;2.60;;
10987;SDS011;5547;42.672;23.230;2022-08-01T12:13:17;2.80;;;2.60;;
10987;SDS011;5547;42.672;23.230;2022-08-01T12:15:43;2.70;;;2.50;;
10987;SDS011;5547;42.672;23.230;2022-08-01T12:18:10;2.65;;;2.55;;
10987;SDS011;5547;42.672;23.230;2022-08-01T12:20:36;3.25;;;2.78;;
10987;SDS011;5547;42.672;23.230;2022-08-01T12:23:05;2.83;;;2.63;;
10987;SDS011;5547;42.672;23.230;2022-08-01T12:25:32;3.55;;;3.00;;
10987;SDS011;5547;42.672;23.230;2022-08-01T12:28:00;4.03;;;2.83;;
10987;SDS011;5547;42.672;23.230;2022-08-01T12:30:27;3.28;;;3.08;;
10987;SDS011;5547;42.672;23.230;2022-08-01T12:32:55;4.45;;;2.83;;
10987;SDS011;5547;42.672;23.230;2022-08-01T12:35:22;2.90;;;2.70;;
10987;SDS011;5547;42.672;23.230;2022-08-01T12:37:50;3.13;;;2.80;;
10987;SDS011;5547;42.672;23.230;2022-08-01T12:40:18;3.05;;;2.90;;
10987;SDS011;5547;42.672;23.230;2022-08-01T12:42:46;3.00;;;2.80;;
10987;SDS011;5547;42.672;23.230;2022-08-01T12:45:15;2.85;;;2.65;;
10987;SDS011;5547;42.672;23.230;2022-08-01T12:47:52;2.40;;;2.30;;
10987;SDS011;5547;42.672;23.230;2022-08-01T12:50:20;3.67;;;2.60;;
10987;SDS011;5547;42.672;23.230;2022-08-01T12:52:49;2.45;;;2.35;;
10987;SDS011;5547;42.672;23.230;2022-08-01T12:55:18;2.40;;;2.30;;
10987;SDS011;5547;42.672;23.230;2022-08-01T12:57:47;2.72;;;2.63;;
10987;SDS011;5547;42.672;23.230;2022-08-01T13:00:24;2.55;;;2.45;;
10987;SDS011;5547;42.672;23.230;2022-08-01T13:03:04;3.78;;;2.63;;
10987;SDS011;5547;42.672;23.230;2022-08-01T13:08:12;2.83;;;2.45;;
10987;SDS011;5547;42.672;23.230;2022-08-01T13:10:39;2.50;;;2.40;;
10987;SDS011;5547;42.672;23.230;2022-08-01T13:13:06;2.65;;;2.45;;
10987;SDS011;5547;42.672;23.230;2022-08-01T13:15:33;2.40;;;2.30;;
10987;SDS011;5547;42.672;23.230;2022-08-01T13:18:00;2.75;;;2.47;;
10987;SDS011;5547;42.672;23.230;2022-08-01T13:20:46;2.63;;;2.50;;
10987;SDS011;5547;42.672;23.230;2022-08-01T13:28:23;2.53;;;2.33;;
10987;SDS011;5547;42.672;23.230;2022-08-01T13:31:06;2.55;;;2.40;;
10987;SDS011;5547;42.672;23.230;2022-08-01T13:33:45;2.30;;;2.20;;
10987;SDS011;5547;42.672;23.230;2022-08-01T13:36:12;2.50;;;2.30;;
10987;SDS011;5547;42.672;23.230;2022-08-01T13:38:40;2.85;;;2.58;;
10987;SDS011;5547;42.672;23.230;2022-08-01T13:41:25;2.70;;;2.50;;
10987;SDS011;5547;42.672;23.230;2022-08-01T13:43:51;2.50;;;2.30;;
10987;SDS011;5547;42.672;23.230;2022-08-01T13:46:17;2.88;;;2.67;;
10987;SDS011;5547;42.672;23.230;2022-08-01T13:48:43;3.63;;;3.20;;
10987;SDS011;5547;42.672;23.230;2022-08-01T13:51:08;2.28;;;2.10;;
10987;SDS011;5547;42.672;23.230;2022-08-01T13:53:34;2.63;;;2.40;;
10987;SDS011;5547;42.672;23.230;2022-08-01T13:56:00;2.40;;;2.22;;
10987;SDS011;5547;42.672;23.230;2022-08-01T13:58:26;2.92;;;2.53;;
10987;SDS011;5547;42.672;23.230;2022-08-01T14:00:53;2.40;;;2.30;;
10987;SDS011;5547;42.672;23.230;2022-08-01T14:03:21;2.40;;;2.30;;
10987;SDS011;5547;42.672;23.230;2022-08-01T14:05:47;2.90;;;2.70;;
10987;SDS011;5547;42.672;23.230;2022-08-01T14:08:13;2.65;;;2.45;;
10987;SDS011;5547;42.672;23.230;2022-08-01T14:10:39;2.85;;;2.65;;
10987;SDS011;5547;42.672;23.230;2022-08-01T14:13:05;2.75;;;2.55;;
10987;SDS011;5547;42.672;23.230;2022-08-01T14:15:30;2.85;;;2.50;;
10987;SDS011;5547;42.672;23.230;2022-08-01T14:17:57;2.65;;;2.55;;
10987;SDS011;5547;42.672;23.230;2022-08-01T14:20:23;2.90;;;2.42;;
10987;SDS011;5547;42.672;23.230;2022-08-01T14:22:49;3.60;;;2.47;;
10987;SDS011;5547;42.672;23.230;2022-08-01T14:25:14;3.00;;;2.80;;
10987;SDS011;5547;42.672;23.230;2022-08-01T14:27:40;2.78;;;2.40;;
10987;SDS011;5547;42.672;23.230;2022-08-01T14:30:07;2.45;;;2.33;;
10987;SDS011;5547;42.672;23.230;2022-08-01T14:32:33;2.40;;;2.30;;
10987;SDS011;5547;42.672;23.230;2022-08-01T14:34:59;2.40;;;2.22;;
10987;SDS011;5547;42.672;23.230;2022-08-01T14:37:29;2.22;;;2.13;;
10987;SDS011;5547;42.672;23.230;2022-08-01T14:39:55;2.60;;;2.40;;
10987;SDS011;5547;42.672;23.230;2022-08-01T14:42:21;2.30;;;2.20;;
10987;SDS011;5547;42.672;23.230;2022-08-01T14:44:47;2.15;;;2.05;;
10987;SDS011;5547;42.672;23.230;2022-08-01T14:47:12;2.20;;;2.00;;
10987;SDS011;5547;42.672;23.230;2022-08-01T14:49:38;3.90;;;2.00;;
10987;SDS011;5547;42.672;23.230;2022-08-01T14:52:03;2.30;;;2.05;;
10987;SDS011;5547;42.672;23.230;2022-08-01T14:54:29;2.03;;;1.85;;
10987;SDS011;5547;42.672;23.230;2022-08-01T14:56:54;1.95;;;1.80;;
10987;SDS011;5547;42.672;23.230;2022-08-01T14:59:19;3.35;;;2.03;;
10987;SDS011;5547;42.672;23.230;2022-08-01T15:01:45;2.30;;;2.10;;
10987;SDS011;5547;42.672;23.230;2022-08-01T15:04:11;2.22;;;2.13;;
10987;SDS011;5547;42.672;23.230;2022-08-01T15:06:36;1.98;;;1.88;;
10987;SDS011;5547;42.672;23.230;2022-08-01T15:09:02;2.10;;;2.00;;
10987;SDS011;5547;42.672;23.230;2022-08-01T15:11:28;1.90;;;1.80;;
10987;SDS011;5547;42.672;23.230;2022-08-01T15:13:53;4.65;;;2.10;;
10987;SDS011;5547;42.672;23.230;2022-08-01T15:16:37;1.98;;;1.83;;
10987;SDS011;5547;42.672;23.230;2022-08-01T15:19:03;2.22;;;2.03;;
10987;SDS011;5547;42.672;23.230;2022-08-01T15:21:29;2.17;;;2.00;;
10987;SDS011;5547;42.672;23.230;2022-08-01T15:23:54;2.53;;;2.25;;
10987;SDS011;5547;42.672;23.230;2022-08-01T15:26:20;2.17;;;2.08;;
10987;SDS011;5547;42.672;23.230;2022-08-01T15:28:45;2.22;;;2.05;;
10987;SDS011;5547;42.672;23.230;2022-08-01T15:31:11;2.30;;;2.20;;
10987;SDS011;5547;42.672;23.230;2022-08-01T15:33:37;1.95;;;1.85;;
10987;SDS011;5547;42.672;23.230;2022-08-01T15:36:03;2.40;;;1.90;;
10987;SDS011;5547;42.672;23.230;2022-08-01T15:38:28;2.03;;;1.75;;
10987;SDS011;5547;42.672;23.230;2022-08-01T15:40:54;2.10;;;1.98;;
10987;SDS011;5547;42.672;23.230;2022-08-01T15:43:19;2.65;;;1.90;;
10987;SDS011;5547;42.672;23.230;2022-08-01T15:45:44;2.15;;;2.05;;
10987;SDS011;5547;42.672;23.230;2022-08-01T15:48:10;2.40;;;1.80;;
10987;SDS011;5547;42.672;23.230;2022-08-01T15:50:36;1.85;;;1.70;;
10987;SDS011;5547;42.672;23.230;2022-08-01T15:53:03;2.10;;;1.90;;
10987;SDS011;5547;42.672;23.230;2022-08-01T15:55:28;2.20;;;2.00;;
10987;SDS011;5547;42.672;23.230;2022-08-01T15:57:54;1.92;;;1.83;;
10987;SDS011;5547;42.672;23.230;2022-08-01T16:00:20;1.90;;;1.80;;
10987;SDS011;5547;42.672;23.230;2022-08-01T16:02:45;1.90;;;1.80;;
10987;SDS011;5547;42.672;23.230;2022-08-01T16:05:11;1.70;;;1.60;;